sensor_id;sensor_type;location;lat;lon;timestamp;P1;durP1;ratioP1;P2;durP2;ratioP2
35128;SDS011;21301;43.626;10.580;2023-03-04T00:01:16;23.70;;;12.63;;
35128;SDS011;21301;43.626;10.580;2023-03-04T00:03:42;32.42;;;15.32;;
35128;SDS011;21301;43.626;10.580;2023-03-04T00:06:08;25.95;;;13.90;;
35128;SDS011;21301;43.626;10.580;2023-03-04T00:08:34;25.40;;;12.30;;
35128;SDS011;21301;43.626;10.580;2023-03-04T00:11:00;25.70;;;13.35;;
35128;SDS011;21301;43.626;10.580;2023-03-04T00:13:26;24.05;;;14.23;;
35128;SDS011;21301;43.626;10.580;2023-03-04T00:15:52;33.10;;;15.85;;
35128;SDS011;21301;43.626;10.580;2023-03-04T00:18:18;25.42;;;13.43;;
35128;SDS011;21301;43.626;10.580;2023-03-04T00:20:47;17.25;;;10.90;;
35128;SDS011;21301;43.626;10.580;2023-03-04T00:23:14;17.95;;;11.85;;
35128;SDS011;21301;43.626;10.580;2023-03-04T00:25:40;21.23;;;11.70;;
35128;SDS011;21301;43.626;10.580;2023-03-04T00:28:06;23.88;;;13.18;;
35128;SDS011;21301;43.626;10.580;2023-03-04T00:30:32;28.35;;;15.32;;
35128;SDS011;21301;43.626;10.580;2023-03-04T00:32:57;18.75;;;11.75;;
35128;SDS011;21301;43.626;10.580;2023-03-04T00:35:24;26.08;;;12.82;;
35128;SDS011;21301;43.626;10.580;2023-03-04T00:37:51;25.83;;;13.50;;
35128;SDS011;21301;43.626;10.580;2023-03-04T00:40:17;22.83;;;13.93;;
35128;SDS011;21301;43.626;10.580;2023-03-04T00:42:43;32.13;;;16.55;;
35128;SDS011;21301;43.626;10.580;2023-03-04T00:45:09;28.60;;;14.93;;
35128;SDS011;21301;43.626;10.580;2023-03-04T00:47:35;20.70;;;12.38;;
35128;SDS011;21301;43.626;10.580;2023-03-04T00:50:00;19.67;;;10.95;;
35128;SDS011;21301;43.626;10.580;2023-03-04T00:52:26;22.15;;;11.88;;
35128;SDS011;21301;43.626;10.580;2023-03-04T00:54:52;19.27;;;11.35;;
35128;SDS011;21301;43.626;10.580;2023-03-04T00:57:18;19.48;;;12.23;;
35128;SDS011;21301;43.626;10.580;2023-03-04T00:59:44;27.23;;;14.18;;
35128;SDS011;21301;43.626;10.580;2023-03-04T01:02:10;32.25;;;15.15;;
35128;SDS011;21301;43.626;10.580;2023-03-04T01:04:37;22.50;;;13.43;;
35128;SDS011;21301;43.626;10.580;2023-03-04T01:07:02;25.10;;;13.13;;
35128;SDS011;21301;43.626;10.580;2023-03-04T01:09:28;19.70;;;9.52;;
35128;SDS011;21301;43.626;10.580;2023-03-04T01:11:54;22.15;;;10.77;;
35128;SDS011;21301;43.626;10.580;2023-03-04T01:14:20;20.05;;;10.98;;
35128;SDS011;21301;43.626;10.580;2023-03-04T01:16:46;16.58;;;9.98;;
35128;SDS011;21301;43.626;10.580;2023-03-04T01:19:14;19.65;;;9.43;;
35128;SDS011;21301;43.626;10.580;2023-03-04T01:21:40;16.08;;;10.02;;
35128;SDS011;21301;43.626;10.580;2023-03-04T01:24:07;21.33;;;11.65;;
35128;SDS011;21301;43.626;10.580;2023-03-04T01:26:33;17.90;;;10.07;;
35128;SDS011;21301;43.626;10.580;2023-03-04T01:28:59;17.45;;;10.27;;
35128;SDS011;21301;43.626;10.580;2023-03-04T01:31:27;15.88;;;10.02;;
35128;SDS011;21301;43.626;10.580;2023-03-04T01:33:52;35.13;;;17.67;;
35128;SDS011;21301;43.626;10.580;2023-03-04T01:36:18;17.83;;;10.57;;
35128;SDS011;21301;43.626;10.580;2023-03-04T01:38:44;22.55;;;12.90;;
35128;SDS011;21301;43.626;10.580;2023-03-04T01:41:10;31.25;;;13.98;;
35128;SDS011;21301;43.626;10.580;2023-03-04T01:43:37;17.90;;;9.40;;
35128;SDS011;21301;43.626;10.580;2023-03-04T01:46:04;25.13;;;12.57;;
35128;SDS011;21301;43.626;10.580;2023-03-04T01:48:32;20.60;;;10.20;;
35128;SDS011;21301;43.626;10.580;2023-03-04T01:51:02;15.30;;;9.75;;
35128;SDS011;21301;43.626;10.580;2023-03-04T01:53:29;19.38;;;10.43;;
35128;SDS011;21301;43.626;10.580;2023-03-04T01:55:59;19.33;;;10.15;;
35128;SDS011;21301;43.626;10.580;2023-03-04T01:58:30;23.77;;;11.20;;
35128;SDS011;21301;43.626;10.580;2023-03-04T02:00:57;19.88;;;9.52;;
35128;SDS011;21301;43.626;10.580;2023-03-04T02:03:23;19.00;;;10.52;;
35128;SDS011;21301;43.626;10.580;2023-03-04T02:05:50;15.68;;;9.93;;
35128;SDS011;21301;43.626;10.580;2023-03-04T02:08:18;22.35;;;10.95;;
35128;SDS011;21301;43.626;10.580;2023-03-04T02:10:46;23.40;;;11.23;;
35128;SDS011;21301;43.626;10.580;2023-03-04T02:13:13;17.90;;;10.65;;
35128;SDS011;21301;43.626;10.580;2023-03-04T02:15:40;19.40;;;10.55;;
35128;SDS011;21301;43.626;10.580;2023-03-04T02:18:21;16.77;;;10.50;;
35128;SDS011;21301;43.626;10.580;2023-03-04T02:28:41;23.50;;;10.40;;
35128;SDS011;21301;43.626;10.580;2023-03-04T02:33:55;23.30;;;11.38;;
35128;SDS011;21301;43.626;10.580;2023-03-04T02:36:25;22.15;;;11.18;;
35128;SDS011;21301;43.626;10.580;2023-03-04T02:38:52;21.98;;;11.90;;
35128;SDS011;21301;43.626;10.580;2023-03-04T02:41:23;18.73;;;10.57;;
35128;SDS011;21301;43.626;10.580;2023-03-04T02:43:54;18.25;;;10.70;;
35128;SDS011;21301;43.626;10.580;2023-03-04T02:46:21;20.40;;;11.32;;
35128;SDS011;21301;43.626;10.580;2023-03-04T02:48:48;20.05;;;10.82;;
35128;SDS011;21301;43.626;10.580;2023-03-04T02:51:14;18.98;;;10.98;;
35128;SDS011;21301;43.626;10.580;2023-03-04T02:53:40;19.23;;;10.73;;
35128;SDS011;21301;43.626;10.580;2023-03-04T02:56:06;16.08;;;10.07;;
35128;SDS011;21301;43.626;10.580;2023-03-04T02:58:35;19.95;;;10.07;;
35128;SDS011;21301;43.626;10.580;2023-03-04T03:01:03;21.23;;;10.00;;
35128;SDS011;21301;43.626;10.580;2023-03-04T03:03:30;21.00;;;11.07;;
35128;SDS011;21301;43.626;10.580;2023-03-04T03:05:56;21.52;;;10.77;;
35128;SDS011;21301;43.626;10.580;2023-03-04T03:08:24;17.50;;;9.50;;
35128;SDS011;21301;43.626;10.580;2023-03-04T03:10:50;14.90;;;9.00;;
35128;SDS011;21301;43.626;10.580;2023-03-04T03:13:16;17.88;;;10.05;;
35128;SDS011;21301;43.626;10.580;2023-03-04T03:15:44;15.13;;;8.68;;
35128;SDS011;21301;43.626;10.580;2023-03-04T03:18:10;14.73;;;8.95;;
35128;SDS011;21301;43.626;10.580;2023-03-04T03:20:36;18.70;;;9.02;;
35128;SDS011;21301;43.626;10.580;2023-03-04T03:23:02;16.23;;;9.75;;
35128;SDS011;21301;43.626;10.580;2023-03-04T03:25:28;17.77;;;9.32;;
35128;SDS011;21301;43.626;10.580;2023-03-04T03:27:54;12.25;;;8.43;;
35128;SDS011;21301;43.626;10.580;2023-03-04T03:30:21;17.15;;;9.32;;
35128;SDS011;21301;43.626;10.580;2023-03-04T03:32:47;14.27;;;8.52;;
35128;SDS011;21301;43.626;10.580;2023-03-04T03:35:13;18.35;;;9.82;;
35128;SDS011;21301;43.626;10.580;2023-03-04T03:37:39;17.13;;;9.50;;
35128;SDS011;21301;43.626;10.580;2023-03-04T03:40:05;16.23;;;10.07;;
35128;SDS011;21301;43.626;10.580;2023-03-04T03:42:31;19.98;;;9.75;;
35128;SDS011;21301;43.626;10.580;2023-03-04T03:44:57;15.50;;;8.90;;
35128;SDS011;21301;43.626;10.580;2023-03-04T03:47:23;17.60;;;9.30;;
35128;SDS011;21301;43.626;10.580;2023-03-04T03:49:49;15.13;;;8.63;;
35128;SDS011;21301;43.626;10.580;2023-03-04T03:52:14;15.07;;;8.15;;
35128;SDS011;21301;43.626;10.580;2023-03-04T03:54:40;13.77;;;8.10;;
35128;SDS011;21301;43.626;10.580;2023-03-04T03:57:07;12.77;;;8.02;;
35128;SDS011;21301;43.626;10.580;2023-03-04T03:59:33;14.90;;;8.23;;
35128;SDS011;21301;43.626;10.580;2023-03-04T04:07:50;16.85;;;8.27;;
35128;SDS011;21301;43.626;10.580;2023-03-04T04:10:16;16.83;;;8.23;;
35128;SDS011;21301;43.626;10.580;2023-03-04T04:12:41;14.45;;;7.07;;
35128;SDS011;21301;43.626;10.580;2023-03-04T04:15:09;15.75;;;8.45;;
35128;SDS011;21301;43.626;10.580;2023-03-04T04:17:36;16.52;;;7.60;;
35128;SDS011;21301;43.626;10.580;2023-03-04T04:20:02;13.25;;;8.10;;
35128;SDS011;21301;43.626;10.580;2023-03-04T04:22:28;16.10;;;9.55;;
35128;SDS011;21301;43.626;10.580;2023-03-04T04:24:54;15.98;;;7.32;;
35128;SDS011;21301;43.626;10.580;2023-03-04T04:27:19;18.25;;;8.98;;
35128;SDS011;21301;43.626;10.580;2023-03-04T04:29:46;15.07;;;7.22;;
35128;SDS011;21301;43.626;10.580;2023-03-04T04:32:12;13.43;;;7.15;;
35128;SDS011;21301;43.626;10.580;2023-03-04T04:34:38;15.98;;;7.32;;
35128;SDS011;21301;43.626;10.580;2023-03-04T04:37:04;16.85;;;8.02;;
35128;SDS011;21301;43.626;10.580;2023-03-04T04:39:29;13.20;;;7.95;;
35128;SDS011;21301;43.626;10.580;2023-03-04T04:41:55;22.00;;;7.93;;
35128;SDS011;21301;43.626;10.580;2023-03-04T04:44:21;17.33;;;8.32;;
35128;SDS011;21301;43.626;10.580;2023-03-04T04:46:46;12.23;;;6.85;;
35128;SDS011;21301;43.626;10.580;2023-03-04T04:49:12;13.32;;;7.25;;
35128;SDS011;21301;43.626;10.580;2023-03-04T04:51:38;14.60;;;7.68;;
35128;SDS011;21301;43.626;10.580;2023-03-04T04:54:04;13.18;;;7.45;;
35128;SDS011;21301;43.626;10.580;2023-03-04T04:56:31;14.38;;;7.57;;
35128;SDS011;21301;43.626;10.580;2023-03-04T04:58:58;11.80;;;6.85;;
35128;SDS011;21301;43.626;10.580;2023-03-04T05:01:26;15.77;;;6.85;;
35128;SDS011;21301;43.626;10.580;2023-03-04T05:03:52;12.38;;;6.95;;
35128;SDS011;21301;43.626;10.580;2023-03-04T05:06:19;15.23;;;8.23;;
35128;SDS011;21301;43.626;10.580;2023-03-04T05:08:46;14.30;;;6.13;;
35128;SDS011;21301;43.626;10.580;2023-03-04T05:11:13;14.90;;;7.50;;
35128;SDS011;21301;43.626;10.580;2023-03-04T05:13:38;11.38;;;6.53;;
35128;SDS011;21301;43.626;10.580;2023-03-04T05:16:05;13.88;;;6.80;;
35128;SDS011;21301;43.626;10.580;2023-03-04T05:18:31;14.95;;;7.60;;
35128;SDS011;21301;43.626;10.580;2023-03-04T05:20:58;13.20;;;7.95;;
35128;SDS011;21301;43.626;10.580;2023-03-04T05:23:26;11.68;;;6.70;;
35128;SDS011;21301;43.626;10.580;2023-03-04T05:25:53;14.25;;;7.75;;
35128;SDS011;21301;43.626;10.580;2023-03-04T05:28:19;13.80;;;6.78;;
35128;SDS011;21301;43.626;10.580;2023-03-04T05:30:45;11.80;;;6.85;;
35128;SDS011;21301;43.626;10.580;2023-03-04T05:33:12;13.52;;;8.45;;
35128;SDS011;21301;43.626;10.580;2023-03-04T05:35:40;11.98;;;6.15;;
35128;SDS011;21301;43.626;10.580;2023-03-04T05:38:08;10.65;;;6.10;;
35128;SDS011;21301;43.626;10.580;2023-03-04T05:40:36;15.93;;;7.45;;
35128;SDS011;21301;43.626;10.580;2023-03-04T05:43:02;14.25;;;8.10;;
35128;SDS011;21301;43.626;10.580;2023-03-04T05:45:28;16.20;;;7.75;;
35128;SDS011;21301;43.626;10.580;2023-03-04T05:47:54;14.30;;;7.22;;
35128;SDS011;21301;43.626;10.580;2023-03-04T05:50:21;12.00;;;6.88;;
35128;SDS011;21301;43.626;10.580;2023-03-04T05:52:48;8.85;;;4.90;;
35128;SDS011;21301;43.626;10.580;2023-03-04T05:55:14;12.60;;;5.70;;
35128;SDS011;21301;43.626;10.580;2023-03-04T05:57:41;11.57;;;6.25;;
35128;SDS011;21301;43.626;10.580;2023-03-04T06:00:08;18.77;;;7.68;;
35128;SDS011;21301;43.626;10.580;2023-03-04T06:02:39;11.63;;;6.18;;
35128;SDS011;21301;43.626;10.580;2023-03-04T06:05:06;10.57;;;5.72;;
35128;SDS011;21301;43.626;10.580;2023-03-04T06:07:33;11.52;;;6.03;;
35128;SDS011;21301;43.626;10.580;2023-03-04T06:09:59;12.27;;;6.03;;
35128;SDS011;21301;43.626;10.580;2023-03-04T06:12:25;12.05;;;6.28;;
35128;SDS011;21301;43.626;10.580;2023-03-04T06:14:52;16.92;;;6.80;;
35128;SDS011;21301;43.626;10.580;2023-03-04T06:17:18;12.13;;;6.15;;
35128;SDS011;21301;43.626;10.580;2023-03-04T06:19:47;12.82;;;6.30;;
35128;SDS011;21301;43.626;10.580;2023-03-04T06:22:13;15.90;;;8.48;;
35128;SDS011;21301;43.626;10.580;2023-03-04T06:24:39;23.50;;;11.73;;
35128;SDS011;21301;43.626;10.580;2023-03-04T06:27:05;14.85;;;8.40;;
35128;SDS011;21301;43.626;10.580;2023-03-04T06:29:31;14.32;;;7.43;;
35128;SDS011;21301;43.626;10.580;2023-03-04T06:31:57;14.98;;;7.38;;
35128;SDS011;21301;43.626;10.580;2023-03-04T06:34:23;10.43;;;7.03;;
35128;SDS011;21301;43.626;10.580;2023-03-04T06:36:49;12.80;;;5.88;;
35128;SDS011;21301;43.626;10.580;2023-03-04T06:39:15;10.77;;;5.70;;
35128;SDS011;21301;43.626;10.580;2023-03-04T06:41:41;10.52;;;5.18;;
35128;SDS011;21301;43.626;10.580;2023-03-04T06:44:06;12.32;;;6.05;;
35128;SDS011;21301;43.626;10.580;2023-03-04T06:46:33;15.70;;;7.57;;
35128;SDS011;21301;43.626;10.580;2023-03-04T06:48:59;21.35;;;10.45;;
35128;SDS011;21301;43.626;10.580;2023-03-04T06:51:26;29.63;;;14.90;;
35128;SDS011;21301;43.626;10.580;2023-03-04T06:53:52;49.97;;;23.45;;
35128;SDS011;21301;43.626;10.580;2023-03-04T06:56:18;40.03;;;21.23;;
35128;SDS011;21301;43.626;10.580;2023-03-04T06:58:44;40.83;;;19.65;;
35128;SDS011;21301;43.626;10.580;2023-03-04T07:01:21;31.80;;;15.95;;
35128;SDS011;21301;43.626;10.580;2023-03-04T07:03:50;13.60;;;7.68;;
35128;SDS011;21301;43.626;10.580;2023-03-04T07:06:18;32.47;;;12.80;;
35128;SDS011;21301;43.626;10.580;2023-03-04T07:08:46;18.42;;;8.90;;
35128;SDS011;21301;43.626;10.580;2023-03-04T07:11:13;11.70;;;7.50;;
35128;SDS011;21301;43.626;10.580;2023-03-04T07:13:39;12.70;;;6.55;;
35128;SDS011;21301;43.626;10.580;2023-03-04T07:16:06;11.32;;;7.18;;
35128;SDS011;21301;43.626;10.580;2023-03-04T07:18:33;11.02;;;7.07;;
35128;SDS011;21301;43.626;10.580;2023-03-04T07:20:59;12.05;;;6.57;;
35128;SDS011;21301;43.626;10.580;2023-03-04T07:23:25;9.15;;;5.95;;
35128;SDS011;21301;43.626;10.580;2023-03-04T07:25:52;13.75;;;7.20;;
35128;SDS011;21301;43.626;10.580;2023-03-04T07:28:18;10.60;;;6.95;;
35128;SDS011;21301;43.626;10.580;2023-03-04T07:30:44;15.10;;;8.18;;
35128;SDS011;21301;43.626;10.580;2023-03-04T07:33:09;12.80;;;7.22;;
35128;SDS011;21301;43.626;10.580;2023-03-04T07:35:36;11.82;;;7.32;;
35128;SDS011;21301;43.626;10.580;2023-03-04T07:38:01;14.18;;;8.07;;
35128;SDS011;21301;43.626;10.580;2023-03-04T07:40:27;11.35;;;6.63;;
35128;SDS011;21301;43.626;10.580;2023-03-04T07:42:54;12.63;;;7.35;;
35128;SDS011;21301;43.626;10.580;2023-03-04T07:45:20;12.98;;;7.80;;
35128;SDS011;21301;43.626;10.580;2023-03-04T07:47:47;10.75;;;6.82;;
35128;SDS011;21301;43.626;10.580;2023-03-04T07:50:14;12.25;;;6.78;;
35128;SDS011;21301;43.626;10.580;2023-03-04T07:52:42;13.65;;;7.35;;
35128;SDS011;21301;43.626;10.580;2023-03-04T07:55:10;16.55;;;9.10;;
35128;SDS011;21301;43.626;10.580;2023-03-04T07:57:38;20.15;;;10.93;;
35128;SDS011;21301;43.626;10.580;2023-03-04T08:00:04;19.83;;;9.73;;
35128;SDS011;21301;43.626;10.580;2023-03-04T08:02:37;14.80;;;8.90;;
35128;SDS011;21301;43.626;10.580;2023-03-04T08:05:03;11.25;;;7.45;;
35128;SDS011;21301;43.626;10.580;2023-03-04T08:07:30;13.02;;;6.65;;
35128;SDS011;21301;43.626;10.580;2023-03-04T08:09:55;12.55;;;7.88;;
35128;SDS011;21301;43.626;10.580;2023-03-04T08:12:21;15.65;;;8.43;;
35128;SDS011;21301;43.626;10.580;2023-03-04T08:14:49;13.52;;;7.60;;
35128;SDS011;21301;43.626;10.580;2023-03-04T08:17:15;14.80;;;7.00;;
35128;SDS011;21301;43.626;10.580;2023-03-04T08:19:41;13.75;;;7.03;;
35128;SDS011;21301;43.626;10.580;2023-03-04T08:22:07;17.05;;;7.82;;
35128;SDS011;21301;43.626;10.580;2023-03-04T08:24:33;14.18;;;7.20;;
35128;SDS011;21301;43.626;10.580;2023-03-04T08:26:59;14.70;;;7.80;;
35128;SDS011;21301;43.626;10.580;2023-03-04T08:29:24;15.35;;;6.40;;
35128;SDS011;21301;43.626;10.580;2023-03-04T08:31:52;14.90;;;6.82;;
35128;SDS011;21301;43.626;10.580;2023-03-04T08:34:18;20.48;;;7.28;;
35128;SDS011;21301;43.626;10.580;2023-03-04T08:36:46;18.90;;;7.60;;
35128;SDS011;21301;43.626;10.580;2023-03-04T08:39:12;14.52;;;5.85;;
35128;SDS011;21301;43.626;10.580;2023-03-04T08:41:39;15.38;;;7.70;;
35128;SDS011;21301;43.626;10.580;2023-03-04T08:44:05;18.80;;;7.28;;
35128;SDS011;21301;43.626;10.580;2023-03-04T08:46:34;12.00;;;6.95;;
35128;SDS011;21301;43.626;10.580;2023-03-04T08:49:04;19.55;;;8.20;;
35128;SDS011;21301;43.626;10.580;2023-03-04T08:51:31;22.35;;;8.55;;
35128;SDS011;21301;43.626;10.580;2023-03-04T08:53:56;18.67;;;8.57;;
35128;SDS011;21301;43.626;10.580;2023-03-04T08:56:22;13.73;;;7.75;;
35128;SDS011;21301;43.626;10.580;2023-03-04T08:58:48;12.80;;;7.22;;
35128;SDS011;21301;43.626;10.580;2023-03-04T09:01:14;15.15;;;8.52;;
35128;SDS011;21301;43.626;10.580;2023-03-04T09:03:41;16.48;;;11.52;;
35128;SDS011;21301;43.626;10.580;2023-03-04T09:06:07;18.67;;;9.05;;
35128;SDS011;21301;43.626;10.580;2023-03-04T09:08:34;14.50;;;8.77;;
35128;SDS011;21301;43.626;10.580;2023-03-04T09:11:00;22.20;;;9.20;;
35128;SDS011;21301;43.626;10.580;2023-03-04T09:13:28;22.33;;;9.25;;
35128;SDS011;21301;43.626;10.580;2023-03-04T09:15:55;14.57;;;8.52;;
35128;SDS011;21301;43.626;10.580;2023-03-04T09:18:21;16.48;;;8.32;;
35128;SDS011;21301;43.626;10.580;2023-03-04T09:20:48;20.42;;;9.77;;
35128;SDS011;21301;43.626;10.580;2023-03-04T09:23:14;14.35;;;9.60;;
35128;SDS011;21301;43.626;10.580;2023-03-04T09:25:41;17.88;;;10.63;;
35128;SDS011;21301;43.626;10.580;2023-03-04T09:28:09;14.32;;;8.50;;
35128;SDS011;21301;43.626;10.580;2023-03-04T09:30:35;14.07;;;8.95;;
35128;SDS011;21301;43.626;10.580;2023-03-04T09:33:01;17.25;;;9.15;;
35128;SDS011;21301;43.626;10.580;2023-03-04T09:35:27;14.45;;;8.60;;
35128;SDS011;21301;43.626;10.580;2023-03-04T09:37:54;16.88;;;9.43;;
35128;SDS011;21301;43.626;10.580;2023-03-04T09:40:22;13.27;;;8.05;;
35128;SDS011;21301;43.626;10.580;2023-03-04T09:42:53;12.23;;;6.65;;
35128;SDS011;21301;43.626;10.580;2023-03-04T09:45:23;14.23;;;7.95;;
35128;SDS011;21301;43.626;10.580;2023-03-04T09:47:57;18.92;;;8.32;;
35128;SDS011;21301;43.626;10.580;2023-03-04T09:50:24;14.95;;;8.38;;
35128;SDS011;21301;43.626;10.580;2023-03-04T10:01:08;14.82;;;6.03;;
35128;SDS011;21301;43.626;10.580;2023-03-04T10:06:20;9.57;;;5.45;;
35128;SDS011;21301;43.626;10.580;2023-03-04T10:16:44;11.88;;;5.68;;
35128;SDS011;21301;43.626;10.580;2023-03-04T10:21:48;11.43;;;5.38;;
35128;SDS011;21301;43.626;10.580;2023-03-04T10:24:17;8.68;;;4.35;;
35128;SDS011;21301;43.626;10.580;2023-03-04T10:26:53;11.32;;;4.93;;
35128;SDS011;21301;43.626;10.580;2023-03-04T10:29:25;11.27;;;5.18;;
35128;SDS011;21301;43.626;10.580;2023-03-04T10:31:55;12.88;;;4.15;;
35128;SDS011;21301;43.626;10.580;2023-03-04T10:34:21;16.20;;;6.50;;
35128;SDS011;21301;43.626;10.580;2023-03-04T10:39:28;9.95;;;4.75;;
35128;SDS011;21301;43.626;10.580;2023-03-04T10:44:51;10.55;;;4.45;;
35128;SDS011;21301;43.626;10.580;2023-03-04T10:47:21;9.97;;;4.93;;
35128;SDS011;21301;43.626;10.580;2023-03-04T10:49:56;11.35;;;5.18;;
35128;SDS011;21301;43.626;10.580;2023-03-04T10:54:53;13.60;;;4.80;;
35128;SDS011;21301;43.626;10.580;2023-03-04T10:57:34;10.95;;;3.88;;
35128;SDS011;21301;43.626;10.580;2023-03-04T11:02:50;13.05;;;5.18;;
35128;SDS011;21301;43.626;10.580;2023-03-04T11:05:23;14.60;;;4.75;;
35128;SDS011;21301;43.626;10.580;2023-03-04T11:10:20;10.90;;;4.22;;
35128;SDS011;21301;43.626;10.580;2023-03-04T11:12:54;10.80;;;4.75;;
35128;SDS011;21301;43.626;10.580;2023-03-04T11:15:24;7.68;;;3.85;;
35128;SDS011;21301;43.626;10.580;2023-03-04T11:17:59;7.75;;;4.13;;
35128;SDS011;21301;43.626;10.580;2023-03-04T11:20:38;9.27;;;4.00;;
35128;SDS011;21301;43.626;10.580;2023-03-04T11:23:10;11.13;;;5.35;;
35128;SDS011;21301;43.626;10.580;2023-03-04T11:25:40;7.53;;;3.40;;
35128;SDS011;21301;43.626;10.580;2023-03-04T11:28:11;12.95;;;4.30;;
35128;SDS011;21301;43.626;10.580;2023-03-04T11:30:44;9.23;;;4.57;;
35128;SDS011;21301;43.626;10.580;2023-03-04T11:33:42;9.82;;;4.38;;
35128;SDS011;21301;43.626;10.580;2023-03-04T11:36:35;8.57;;;4.15;;
35128;SDS011;21301;43.626;10.580;2023-03-04T11:39:30;9.75;;;4.32;;
35128;SDS011;21301;43.626;10.580;2023-03-04T11:42:04;10.43;;;4.80;;
35128;SDS011;21301;43.626;10.580;2023-03-04T11:44:50;7.07;;;3.95;;
35128;SDS011;21301;43.626;10.580;2023-03-04T11:50:34;8.80;;;4.80;;
35128;SDS011;21301;43.626;10.580;2023-03-04T12:00:44;8.10;;;3.30;;
35128;SDS011;21301;43.626;10.580;2023-03-04T12:06:26;14.73;;;4.57;;
35128;SDS011;21301;43.626;10.580;2023-03-04T12:09:07;9.13;;;4.03;;
35128;SDS011;21301;43.626;10.580;2023-03-04T12:11:56;8.93;;;4.53;;
35128;SDS011;21301;43.626;10.580;2023-03-04T12:25:38;9.68;;;3.65;;
35128;SDS011;21301;43.626;10.580;2023-03-04T12:31:11;12.60;;;4.38;;
35128;SDS011;21301;43.626;10.580;2023-03-04T12:42:02;11.10;;;3.60;;
35128;SDS011;21301;43.626;10.580;2023-03-04T12:44:51;9.48;;;5.82;;
35128;SDS011;21301;43.626;10.580;2023-03-04T12:55:23;13.27;;;7.05;;
35128;SDS011;21301;43.626;10.580;2023-03-04T12:57:59;13.80;;;5.82;;
35128;SDS011;21301;43.626;10.580;2023-03-04T13:24:55;11.52;;;4.95;;
35128;SDS011;21301;43.626;10.580;2023-03-04T13:32:58;12.50;;;4.72;;
35128;SDS011;21301;43.626;10.580;2023-03-04T13:38:22;19.13;;;5.03;;
35128;SDS011;21301;43.626;10.580;2023-03-04T13:43:47;8.85;;;4.97;;
35128;SDS011;21301;43.626;10.580;2023-03-04T13:49:04;7.32;;;3.00;;
35128;SDS011;21301;43.626;10.580;2023-03-04T13:51:35;7.05;;;3.28;;
35128;SDS011;21301;43.626;10.580;2023-03-04T13:54:23;10.27;;;4.13;;
35128;SDS011;21301;43.626;10.580;2023-03-04T13:59:26;10.63;;;3.90;;
35128;SDS011;21301;43.626;10.580;2023-03-04T14:02:23;7.00;;;2.78;;
35128;SDS011;21301;43.626;10.580;2023-03-04T14:07:20;7.35;;;2.90;;
35128;SDS011;21301;43.626;10.580;2023-03-04T14:12:53;6.78;;;2.42;;
35128;SDS011;21301;43.626;10.580;2023-03-04T14:15:26;9.73;;;3.40;;
35128;SDS011;21301;43.626;10.580;2023-03-04T14:17:58;9.48;;;2.70;;
35128;SDS011;21301;43.626;10.580;2023-03-04T14:20:30;7.80;;;2.60;;
35128;SDS011;21301;43.626;10.580;2023-03-04T14:23:00;8.23;;;2.78;;
35128;SDS011;21301;43.626;10.580;2023-03-04T14:25:29;6.57;;;2.72;;
35128;SDS011;21301;43.626;10.580;2023-03-04T14:28:09;4.65;;;2.10;;
35128;SDS011;21301;43.626;10.580;2023-03-04T14:30:37;7.57;;;2.60;;
35128;SDS011;21301;43.626;10.580;2023-03-04T14:33:06;7.53;;;1.88;;
35128;SDS011;21301;43.626;10.580;2023-03-04T14:35:33;8.00;;;2.53;;
35128;SDS011;21301;43.626;10.580;2023-03-04T14:38:04;6.85;;;2.40;;
35128;SDS011;21301;43.626;10.580;2023-03-04T14:40:34;5.60;;;2.78;;
35128;SDS011;21301;43.626;10.580;2023-03-04T14:43:07;6.22;;;2.13;;
35128;SDS011;21301;43.626;10.580;2023-03-04T14:45:38;7.03;;;2.63;;
35128;SDS011;21301;43.626;10.580;2023-03-04T14:48:06;4.35;;;2.00;;
35128;SDS011;21301;43.626;10.580;2023-03-04T14:50:33;7.35;;;2.17;;
35128;SDS011;21301;43.626;10.580;2023-03-04T14:55:33;4.75;;;1.85;;
35128;SDS011;21301;43.626;10.580;2023-03-04T14:58:06;8.27;;;2.70;;
35128;SDS011;21301;43.626;10.580;2023-03-04T15:00:46;7.50;;;2.60;;
35128;SDS011;21301;43.626;10.580;2023-03-04T15:03:19;6.82;;;2.38;;
35128;SDS011;21301;43.626;10.580;2023-03-04T15:05:48;5.13;;;2.40;;
35128;SDS011;21301;43.626;10.580;2023-03-04T15:11:05;5.07;;;2.55;;
35128;SDS011;21301;43.626;10.580;2023-03-04T15:13:42;8.27;;;2.85;;
35128;SDS011;21301;43.626;10.580;2023-03-04T15:16:11;6.78;;;3.55;;
35128;SDS011;21301;43.626;10.580;2023-03-04T15:18:38;8.75;;;3.92;;
35128;SDS011;21301;43.626;10.580;2023-03-04T15:23:55;7.78;;;3.47;;
35128;SDS011;21301;43.626;10.580;2023-03-04T15:26:21;11.00;;;3.35;;
35128;SDS011;21301;43.626;10.580;2023-03-04T15:28:47;6.70;;;2.70;;
35128;SDS011;21301;43.626;10.580;2023-03-04T15:31:17;10.40;;;3.15;;
35128;SDS011;21301;43.626;10.580;2023-03-04T15:33:44;6.13;;;2.72;;
35128;SDS011;21301;43.626;10.580;2023-03-04T15:36:14;5.55;;;2.92;;
35128;SDS011;21301;43.626;10.580;2023-03-04T15:38:43;5.57;;;2.33;;
35128;SDS011;21301;43.626;10.580;2023-03-04T15:41:12;13.52;;;5.05;;
35128;SDS011;21301;43.626;10.580;2023-03-04T15:43:43;8.40;;;3.67;;
35128;SDS011;21301;43.626;10.580;2023-03-04T15:46:09;8.98;;;3.78;;
35128;SDS011;21301;43.626;10.580;2023-03-04T15:48:36;12.98;;;4.25;;
35128;SDS011;21301;43.626;10.580;2023-03-04T15:51:02;10.07;;;3.85;;
35128;SDS011;21301;43.626;10.580;2023-03-04T15:56:06;6.78;;;3.20;;
35128;SDS011;21301;43.626;10.580;2023-03-04T15:58:36;6.75;;;3.83;;
35128;SDS011;21301;43.626;10.580;2023-03-04T16:01:03;9.43;;;4.07;;
35128;SDS011;21301;43.626;10.580;2023-03-04T16:03:29;8.90;;;3.72;;
35128;SDS011;21301;43.626;10.580;2023-03-04T16:05:56;6.82;;;3.63;;
35128;SDS011;21301;43.626;10.580;2023-03-04T16:08:22;8.13;;;4.03;;
35128;SDS011;21301;43.626;10.580;2023-03-04T16:10:51;9.40;;;4.07;;
35128;SDS011;21301;43.626;10.580;2023-03-04T16:13:19;8.43;;;3.97;;
35128;SDS011;21301;43.626;10.580;2023-03-04T16:15:47;10.48;;;3.90;;
35128;SDS011;21301;43.626;10.580;2023-03-04T16:18:13;7.05;;;3.10;;
35128;SDS011;21301;43.626;10.580;2023-03-04T16:20:41;7.93;;;3.33;;
35128;SDS011;21301;43.626;10.580;2023-03-04T16:23:11;5.70;;;3.63;;
35128;SDS011;21301;43.626;10.580;2023-03-04T16:25:38;10.70;;;4.15;;
35128;SDS011;21301;43.626;10.580;2023-03-04T16:28:08;8.50;;;3.55;;
35128;SDS011;21301;43.626;10.580;2023-03-04T16:30:35;7.80;;;3.80;;
35128;SDS011;21301;43.626;10.580;2023-03-04T16:33:01;8.25;;;4.38;;
35128;SDS011;21301;43.626;10.580;2023-03-04T16:35:27;10.93;;;3.90;;
35128;SDS011;21301;43.626;10.580;2023-03-04T16:37:53;10.93;;;4.00;;
35128;SDS011;21301;43.626;10.580;2023-03-04T16:40:22;10.95;;;4.20;;
35128;SDS011;21301;43.626;10.580;2023-03-04T16:42:53;9.10;;;3.35;;
35128;SDS011;21301;43.626;10.580;2023-03-04T16:45:23;16.60;;;5.05;;
35128;SDS011;21301;43.626;10.580;2023-03-04T16:47:54;7.72;;;4.53;;
35128;SDS011;21301;43.626;10.580;2023-03-04T16:50:21;8.05;;;3.97;;
35128;SDS011;21301;43.626;10.580;2023-03-04T16:52:51;9.93;;;4.13;;
35128;SDS011;21301;43.626;10.580;2023-03-04T16:55:25;8.10;;;4.88;;
35128;SDS011;21301;43.626;10.580;2023-03-04T16:57:53;8.43;;;4.93;;
35128;SDS011;21301;43.626;10.580;2023-03-04T17:00:22;17.10;;;8.35;;